Fosses-la-Ville, Belgium
Current Conditions -  °F | °C
As of 5:25 AM on Wednesday 22 Oct 2014 (Local Time) from EBFS Reporting Station
Scattered Clouds Scattered Clouds  
Wind Chill: 33°   Ceiling: Unl
Heat Index: 41°   Visibility: 6mi
Dew Point: 36°   Wind: 16mph
Humidity: 81%   Direction: 280°W
Pressure: 30.06"   Gusts: NA
Location:  50.4°N, 4.7°E
Report Text: EBFS 220325Z 28014KT 9999 FEW029 SCT230 05/02 Q1018 BLU
Loading
Personal Weather Stations






























Interactive Weather Map
Tropical Storm Tracking
New forecast layout! Learn more

10-Day Weather Forecast

Advertisements
Track Severe Weather on mobile